Bookmark and Share
Track history (hours):
 

Talitha

Last reported at 2013-Oct-11 04:23 UTC. Time now 2014-Apr-21 10:07 UTC.
Position N 41°33' E 002°37'.
Warning: this ship's position is months out of date.

Length 60 m; draft 3.7 m.

Type: Pleasure craft. MMSI: 310051000.

NotesDate/timePositionNaut miles runAvg speedWind from/ knotsBaromVisibWave heightAir tempDewpointWater temp
2013-Oct-11 04:23N 41°33' E 002°37'8 9.4
2013-Oct-11 03:32N 41°37' E 002°47'10 9.8
2013-Oct-11 02:28N 41°42' E 002°58'9 9.7
2013-Oct-11 01:33N 41°47' E 003°08'9 8.8
2013-Oct-11 00:33N 41°54' E 003°15'9 8.7
2013-Oct-10 23:33N 42°03' E 003°17'9 9.4
2013-Oct-10 22:33N 42°12' E 003°12'4 4.2
2013-Oct-10 21:33N 42°15' E 003°10'0 0.0
2013-Oct-10 20:33N 42°15' E 003°10'0 0.0
2013-Oct-10 19:33N 42°15' E 003°10'0 0.0
2013-Oct-10 18:33N 42°15' E 003°10'0 0.0
2013-Oct-10 17:33N 42°15' E 003°10'0 0.0
2013-Oct-10 16:33N 42°15' E 003°10'0 0.0
2013-Oct-10 15:33N 42°15' E 003°10'0 0.1
2013-Oct-10 14:33N 42°15' E 003°10'0 0.0
2013-Oct-10 13:33N 42°15' E 003°10'0 0.0
2013-Oct-10 12:33N 42°15' E 003°10'0 0.0
2013-Oct-10 11:33N 42°15' E 003°10'0 0.0
2013-Oct-10 10:33N 42°15' E 003°10'0 0.0
2013-Oct-10 09:33N 42°15' E 003°10'0 0.0
2013-Oct-10 08:33N 42°15' E 003°10'0 0.0
2013-Oct-10 07:33N 42°15' E 003°10'0 0.0
2013-Oct-10 06:33N 42°15' E 003°10'0 0.0
2013-Oct-10 05:33N 42°15' E 003°10'0 0.0
2013-Oct-10 04:33N 42°15' E 003°10'0 0.0
2013-Oct-10 03:33N 42°15' E 003°10'0 0.0
2013-Oct-10 02:33N 42°15' E 003°10'0 0.0
2013-Oct-10 01:33N 42°15' E 003°10'0 0.0
2013-Oct-10 00:33N 42°15' E 003°10'0 0.0
2013-Oct-09 23:33N 42°15' E 003°10'0 0.0
2013-Oct-09 22:33N 42°15' E 003°10'0 0.0
2013-Oct-09 21:33N 42°15' E 003°10'0 0.0
2013-Oct-09 20:33N 42°15' E 003°10'0 0.0
2013-Oct-09 19:33N 42°15' E 003°10'0 0.0
2013-Oct-09 18:33N 42°15' E 003°10'0 0.0
2013-Oct-09 17:34N 42°15' E 003°10'0 0.0
2013-Oct-09 16:33N 42°15' E 003°10'0 0.0
2013-Oct-09 15:33N 42°15' E 003°10'0 0.0
2013-Oct-09 14:33N 42°15' E 003°10'0 0.0
2013-Oct-09 13:33N 42°15' E 003°10'0 0.0
2013-Oct-09 12:33N 42°15' E 003°10'0 0.0
2013-Oct-09 11:33N 42°15' E 003°10'0 0.0
2013-Oct-09 10:33N 42°15' E 003°10'0 0.0
2013-Oct-09 09:33N 42°15' E 003°10'0 0.0
2013-Oct-09 08:33N 42°15' E 003°10'0 0.0
2013-Oct-09 07:33N 42°15' E 003°10'4 4.4
2013-Oct-09 06:33N 42°13' E 003°15'1413.8
2013-Oct-09 05:33N 42°17' E 003°33'1413.9
2013-Oct-09 04:33N 42°22' E 003°51'1413.8
2013-Oct-09 03:33N 42°26' E 004°09'1414.1
2013-Oct-09 02:33N 42°31' E 004°27'1413.6
2013-Oct-09 01:32N 42°35' E 004°44'3113.7
2013-Oct-08 23:16N 42°45' E 005°25'1013.8
2013-Oct-08 22:32N 42°48' E 005°38'1414.4
2013-Oct-08 21:33N 42°53' E 005°56'1515.0
2013-Oct-08 20:33N 42°57' E 006°15'1414.3
2013-Oct-08 19:33N 43°03' E 006°33'1313.1
2013-Oct-08 18:33N 43°13' E 006°44'4 4.5
2013-Oct-08 17:34N 43°16' E 006°40'0 0.0
2013-Oct-08 16:33N 43°16' E 006°40'0 0.0
2013-Oct-08 15:34N 43°16' E 006°40'0 0.0
2013-Oct-08 14:33N 43°16' E 006°40'0 0.0
2013-Oct-08 13:33N 43°16' E 006°40'0 0.0
2013-Oct-08 12:33N 43°16' E 006°40'0 0.0
2013-Oct-08 11:33N 43°16' E 006°40'0 0.0
2013-Oct-08 10:34N 43°16' E 006°40'2 1.7
2013-Oct-08 09:34N 43°18' E 006°41'1313.3
2013-Oct-08 08:33N 43°25' E 006°56'1111.0
2013-Oct-08 07:33N 43°33' E 007°06'0 0.0
2013-Oct-08 06:33N 43°33' E 007°06'0 0.0
2013-Oct-08 05:33N 43°33' E 007°06'0 0.0
2013-Oct-08 04:33N 43°33' E 007°06'0 0.0
2013-Oct-08 03:33N 43°33' E 007°06'0 0.0
2013-Oct-08 02:34N 43°33' E 007°06'0 0.0
2013-Oct-08 01:33N 43°33' E 007°06'0 0.0
2013-Oct-08 00:33N 43°33' E 007°06'0 0.0
2013-Oct-07 23:33N 43°33' E 007°06'0 0.0
2013-Oct-07 22:33N 43°33' E 007°06'0 0.0
2013-Oct-07 21:33N 43°33' E 007°06'0 0.0
2013-Oct-07 20:33N 43°33' E 007°06'0 0.0
2013-Oct-07 19:33N 43°33' E 007°06'0 0.0
2013-Oct-07 18:33N 43°33' E 007°06'0 0.0
2013-Oct-07 17:33N 43°33' E 007°06'0 0.0
2013-Oct-07 16:33N 43°33' E 007°06'0 0.0
2013-Oct-07 15:33N 43°33' E 007°06'0 0.0
2013-Oct-07 14:33N 43°33' E 007°06'0 0.0
2013-Oct-07 13:33N 43°33' E 007°06'0 0.0
2013-Oct-07 12:33N 43°33' E 007°06'0 0.0
2013-Oct-07 11:33N 43°33' E 007°06'0 0.0
2013-Oct-07 10:33N 43°33' E 007°06'0 0.0
2013-Oct-07 09:33N 43°33' E 007°06'0 0.0
2013-Oct-07 08:33N 43°33' E 007°06'5 4.8
2013-Oct-07 07:31N 43°29' E 007°03'1713.8
2013-Oct-07 06:18N 43°19' E 006°44'5 3.1
2013-Oct-07 04:32N 43°17' E 006°38'0 0.0
2013-Oct-07 03:29N 43°17' E 006°38'0 0.0
2013-Oct-07 02:32N 43°17' E 006°38'0 0.0
2013-Oct-07 01:32N 43°17' E 006°38'0 0.0
2013-Oct-07 00:29N 43°17' E 006°38'289304.2
2013-Oct-06 23:32N 43°17' E 000°01'289289.7
2013-Oct-06 22:32N 43°17' E 006°38'0 0.0
2013-Oct-06 21:32N 43°17' E 006°38'0 0.0
2013-Oct-06 20:32N 43°17' E 006°38'0 0.0
2013-Oct-06 19:29N 43°17' E 006°38'0 0.0
2013-Oct-06 18:32N 43°17' E 006°38'0 0.0
2013-Oct-06 17:32N 43°17' E 006°38'0 0.0
2013-Oct-06 16:32N 43°17' E 006°38'0 0.0
2013-Oct-06 15:32N 43°17' E 006°38'0 0.0
2013-Oct-06 14:32N 43°17' E 006°38'0 0.0
2013-Oct-06 13:33N 43°17' E 006°38'1 1.3
2013-Oct-06 12:30N 43°16' E 006°40'0 0.0
2013-Oct-06 11:30N 43°16' E 006°40'0 0.0
2013-Oct-06 09:30N 43°16' E 006°40'0 0.0
2013-Oct-06 08:33N 43°16' E 006°40'0 0.0
2013-Oct-06 07:15N 43°16' E 006°40'0 0.0
2013-Oct-06 06:33N 43°16' E 006°40'0 0.0
2013-Oct-06 05:30N 43°16' E 006°40'0 0.0
2013-Oct-06 03:33N 43°16' E 006°40'0 0.0
2013-Oct-06 02:33N 43°16' E 006°40'0 0.0
2013-Oct-06 00:33N 43°16' E 006°40'0 0.0
2013-Oct-05 23:33N 43°16' E 006°40'0 0.0
2013-Oct-05 21:33N 43°16' E 006°40'0 0.0
2013-Oct-05 20:30N 43°16' E 006°40'0 0.0
2013-Oct-05 18:33N 43°16' E 006°40'0 0.0
2013-Oct-05 17:33N 43°16' E 006°40'0 0.0
2013-Oct-05 16:33N 43°16' E 006°40'0 0.0
2013-Oct-05 15:30N 43°16' E 006°40'0 0.0
2013-Oct-05 14:33N 43°16' E 006°40'0 0.0
2013-Oct-05 13:18N 43°16' E 006°40'0 0.0
2013-Oct-05 12:30N 43°16' E 006°40'0 0.0
2013-Oct-05 11:33N 43°16' E 006°40'0 0.0
2013-Oct-05 09:30N 43°16' E 006°40'0 0.0
2013-Oct-05 08:33N 43°16' E 006°40'0 0.0
2013-Oct-05 07:27N 43°16' E 006°40'0 0.0
2013-Oct-05 06:33N 43°16' E 006°40'0 0.0
2013-Oct-05 05:30N 43°16' E 006°40'0 0.0
2013-Oct-05 04:06N 43°16' E 006°40'0 0.0
2013-Oct-05 03:33N 43°16' E 006°40'0 0.0
2013-Oct-05 02:33N 43°16' E 006°40'0 0.0
2013-Oct-05 01:21N 43°16' E 006°40'0 0.0
2013-Oct-05 00:30N 43°16' E 006°40'0 0.0
2013-Oct-04 23:33N 43°16' E 006°40'0 0.0
2013-Oct-04 12:09N 43°16' E 006°40'0 0.0
2013-Oct-04 11:15N 43°16' E 006°40'0 0.0
2013-Oct-04 10:21N 43°16' E 006°40'0 0.0
2013-Oct-04 03:33N 43°16' E 006°40'0 0.0
2013-Oct-04 02:33N 43°16' E 006°40'0 0.0
2013-Oct-04 01:24N 43°16' E 006°40'0 0.0
2013-Oct-04 00:30N 43°16' E 006°40'0 0.0
2013-Oct-03 23:33N 43°16' E 006°40'0 0.0
2013-Oct-03 21:30N 43°16' E 006°40'0 0.0
2013-Oct-03 20:30N 43°16' E 006°40'0 0.0
2013-Oct-03 19:15N 43°16' E 006°40'0 0.0
2013-Oct-03 18:33N 43°16' E 006°40'0 0.0
2013-Oct-03 17:33N 43°16' E 006°40'0 0.0
2013-Oct-03 15:33N 43°16' E 006°40'0 0.0
2013-Oct-03 14:30N 43°16' E 006°40'0 0.0
2013-Oct-03 13:30N 43°16' E 006°40'0 0.0
2013-Oct-03 12:30N 43°16' E 006°40'0 0.0
2013-Oct-03 11:33N 43°16' E 006°40'0 0.0
2013-Oct-03 09:30N 43°16' E 006°40'0 0.0
2013-Oct-03 08:30N 43°16' E 006°40'0 0.0
2013-Oct-03 06:33N 43°16' E 006°40'0 0.0
2013-Oct-03 05:30N 43°16' E 006°40'0 0.0
2013-Oct-03 04:33N 43°16' E 006°40'0 0.0
2013-Oct-03 03:33N 43°16' E 006°40'0 0.0
2013-Oct-03 02:34N 43°16' E 006°40'0 0.0
2013-Oct-03 01:33N 43°16' E 006°40'0 0.0
2013-Oct-03 00:33N 43°16' E 006°40'0 0.0
2013-Oct-02 23:33N 43°16' E 006°40'0 0.0
2013-Oct-02 22:33N 43°16' E 006°40'0 0.0
2013-Oct-02 21:34N 43°16' E 006°40'0 0.0
2013-Oct-02 20:33N 43°16' E 006°40'0 0.0
2013-Oct-02 18:33N 43°16' E 006°40'0 0.0
2013-Oct-02 17:34N 43°16' E 006°40'0 0.0
2013-Oct-02 16:33N 43°16' E 006°40'0 0.0
2013-Oct-02 15:33N 43°16' E 006°40'0 0.0
2013-Oct-02 14:33N 43°16' E 006°40'0 0.0
2013-Oct-02 13:32N 43°16' E 006°40'0 0.0
2013-Oct-02 12:34N 43°16' E 006°40'0 0.0
2013-Oct-02 11:33N 43°16' E 006°40'1 0.7
2013-Oct-02 10:33N 43°17' E 006°39'1 1.0
2013-Oct-02 09:33N 43°16' E 006°37'1 1.1
2013-Oct-02 08:33N 43°16' E 006°36'1 1.4
2013-Oct-02 07:33N 43°17' E 006°38'0 0.0
2013-Oct-02 06:34N 43°17' E 006°38'0 0.0
2013-Oct-02 05:33N 43°17' E 006°38'290291.3
2013-Oct-02 04:33N 43°17' E 000°00'290289.6
2013-Oct-02 03:33N 43°17' E 006°38'0 0.0
2013-Oct-02 02:34N 43°17' E 006°38'0 0.0
2013-Oct-02 01:33N 43°17' E 006°38'0 0.0
2013-Oct-02 00:33N 43°17' E 006°38'0 0.0
2013-Oct-01 23:34N 43°17' E 006°38'0 0.0
2013-Oct-01 22:32N 43°17' E 006°38'0 0.0
2013-Oct-01 21:34N 43°17' E 006°38'0 0.0
2013-Oct-01 20:33N 43°17' E 006°38'0 0.0
2013-Oct-01 19:33N 43°17' E 006°38'0 0.0
2013-Oct-01 18:34N 43°17' E 006°38'0 0.0
2013-Oct-01 17:33N 43°17' E 006°38'0 0.0
2013-Oct-01 16:33N 43°17' E 006°38'0 0.0
2013-Oct-01 15:33N 43°17' E 006°38'0 0.0
2013-Oct-01 14:33N 43°17' E 006°38'0 0.0
2013-Oct-01 13:33N 43°17' E 006°38'0 0.0
2013-Oct-01 12:33N 43°17' E 006°38'0 0.0
2013-Oct-01 11:34N 43°17' E 006°38'0 0.0
2013-Oct-01 10:34N 43°17' E 006°38'0 0.1
2013-Oct-01 09:33N 43°17' E 006°38'0 0.0
2013-Oct-01 08:33N 43°17' E 006°38'0 0.0
2013-Oct-01 07:33N 43°17' E 006°38'0 0.0
2013-Oct-01 06:34N 43°17' E 006°38'0 0.0
2013-Oct-01 05:34N 43°17' E 006°38'0 0.0
2013-Oct-01 04:33N 43°17' E 006°38'  

Dump ship's entire track history

sailing weather and tide predictions

Talitha — ZCAN7 — position and weather